createdAt,value
2024-02-01T00:00:16.830Z,102515.56
2024-02-01T00:02:43.697Z,102501.63
2024-02-01T00:05:10.717Z,102503.28
2024-02-01T00:07:37.366Z,102488.47
2024-02-01T00:10:04.204Z,102491.88
2024-02-01T00:12:30.659Z,102504.00
2024-02-01T00:14:57.242Z,102499.63
2024-02-01T00:17:23.756Z,102491.75
2024-02-01T00:19:50.194Z,102497.78
2024-02-01T00:22:27.482Z,102492.56
2024-02-01T00:24:57.614Z,102483.75
2024-02-01T00:27:24.052Z,102490.72
2024-02-01T00:29:50.557Z,102488.00
2024-02-01T00:32:17.091Z,102493.09
2024-02-01T00:34:45.417Z,102484.31
2024-02-01T00:37:12.262Z,102490.38
2024-02-01T00:39:38.672Z,102492.03
2024-02-01T00:42:05.399Z,102489.34
2024-02-01T00:44:32.039Z,102488.28
2024-02-01T00:46:58.517Z,102494.34
2024-02-01T00:49:25.220Z,102505.56
2024-02-01T00:51:52.150Z,102500.16
2024-02-01T00:54:18.755Z,102491.50
2024-02-01T00:56:45.281Z,102496.56
2024-02-01T00:59:11.751Z,102495.59
2024-02-01T01:01:38.271Z,102492.94
2024-02-01T01:04:04.928Z,102489.44
2024-02-01T01:06:31.439Z,102490.22
2024-02-01T01:08:58.033Z,102492.69
2024-02-01T01:11:24.474Z,102494.28
2024-02-01T01:13:50.924Z,102495.06
2024-02-01T01:16:17.533Z,102504.41
2024-02-01T01:18:44.112Z,102494.81
2024-02-01T01:21:10.650Z,102493.88
2024-02-01T01:23:37.186Z,102485.03
2024-02-01T01:26:03.798Z,102498.50
2024-02-01T01:28:30.416Z,102495.59
2024-02-01T01:30:56.903Z,102498.84
2024-02-01T01:33:23.418Z,102504.81
2024-02-01T01:35:50.013Z,102502.84
2024-02-01T01:38:16.576Z,102509.63
2024-02-01T01:40:44.982Z,102510.22
2024-02-01T01:43:11.459Z,102504.88
2024-02-01T01:45:38.043Z,102509.81
2024-02-01T01:48:05.147Z,102513.84
2024-02-01T01:50:31.735Z,102514.53
2024-02-01T01:52:58.983Z,102518.00
2024-02-01T01:55:27.862Z,102518.78
2024-02-01T01:57:54.790Z,102521.19
2024-02-01T02:00:22.703Z,102517.59
2024-02-01T02:02:49.274Z,102520.44
2024-02-01T02:05:16.263Z,102521.94
2024-02-01T02:07:42.768Z,102531.56
2024-02-01T02:10:16.014Z,102531.41
2024-02-01T02:12:44.148Z,102534.00
2024-02-01T02:15:12.171Z,102545.34
2024-02-01T02:17:39.506Z,102542.66
2024-02-01T02:20:17.602Z,102555.59
2024-02-01T02:22:53.079Z,102555.66
2024-02-01T02:25:20.077Z,102553.94
2024-02-01T02:27:46.541Z,102543.56
2024-02-01T02:30:13.266Z,102554.06
2024-02-01T02:32:40.791Z,102553.22
2024-02-01T02:35:14.924Z,102558.41
2024-02-01T02:37:49.632Z,102555.81
2024-02-01T02:40:22.004Z,102554.06
2024-02-01T02:42:49.415Z,102560.13
2024-02-01T02:45:16.693Z,102567.13
2024-02-01T02:47:45.923Z,102574.97
2024-02-01T02:50:12.984Z,102569.81
2024-02-01T02:52:41.234Z,102582.91
2024-02-01T02:55:08.681Z,102585.66
2024-02-01T02:57:36.242Z,102584.09
2024-02-01T03:00:06.508Z,102583.38
2024-02-01T03:02:33.651Z,102591.31
2024-02-01T03:05:01.138Z,102596.63
2024-02-01T03:07:28.307Z,102603.00
2024-02-01T03:09:54.840Z,102604.06
2024-02-01T03:12:21.386Z,102613.97
2024-02-01T03:14:51.277Z,102612.63
2024-02-01T03:17:19.409Z,102612.16
2024-02-01T03:19:51.112Z,102623.78
2024-02-01T03:22:20.540Z,102629.19
2024-02-01T03:24:47.867Z,102642.41
2024-02-01T03:27:15.923Z,102644.31
2024-02-01T03:29:47.105Z,102646.38
2024-02-01T03:32:13.599Z,102657.09
2024-02-01T03:34:43.321Z,102667.81
2024-02-01T03:37:15.482Z,102670.66
2024-02-01T03:39:44.862Z,102680.63
2024-02-01T03:42:13.470Z,102681.69
2024-02-01T03:44:41.478Z,102682.19
2024-02-01T03:47:10.711Z,102694.69
2024-02-01T03:49:41.742Z,102698.34
2024-02-01T03:52:10.906Z,102711.72
2024-02-01T03:54:38.615Z,102720.69
2024-02-01T03:57:06.482Z,102716.59
2024-02-01T03:59:33.793Z,102721.25
2024-02-01T04:02:05.188Z,102720.59
2024-02-01T04:04:32.360Z,102738.09
2024-02-01T04:06:59.038Z,102751.38
2024-02-01T04:09:26.085Z,102749.78
2024-02-01T04:11:52.564Z,102750.88
2024-02-01T04:14:19.888Z,102751.84
2024-02-01T04:16:47.601Z,102758.91
2024-02-01T04:19:14.264Z,102760.75
2024-02-01T04:21:45.687Z,102771.38
2024-02-01T04:24:12.662Z,102773.31
2024-02-01T04:26:39.664Z,102770.91
2024-02-01T04:29:06.192Z,102774.50
2024-02-01T04:31:32.633Z,102789.38
2024-02-01T04:33:59.376Z,102790.38
2024-02-01T04:36:26.527Z,102800.03
2024-02-01T04:38:52.977Z,102807.97
2024-02-01T04:41:19.418Z,102806.38
2024-02-01T04:43:46.096Z,102808.28
2024-02-01T04:46:12.647Z,102812.78
2024-02-01T04:48:41.443Z,102817.19
2024-02-01T04:51:08.263Z,102816.44
2024-02-01T04:53:34.820Z,102833.06
2024-02-01T04:56:01.881Z,102834.97
2024-02-01T04:58:28.364Z,102842.88
2024-02-01T05:00:55.442Z,102842.13
2024-02-01T05:03:25.979Z,102844.84
2024-02-01T05:05:54.771Z,102844.94
2024-02-01T05:08:21.201Z,102838.97
2024-02-01T05:10:47.647Z,102839.13
2024-02-01T05:13:14.397Z,102834.06
2024-02-01T05:15:48.068Z,102834.97
2024-02-01T05:18:15.624Z,102840.28
2024-02-01T05:20:44.353Z,102841.28
2024-02-01T05:23:11.061Z,102849.22
2024-02-01T05:25:41.746Z,102841.41
2024-02-01T05:28:11.656Z,102842.34
2024-02-01T05:30:42.617Z,102848.44
2024-02-01T05:33:09.789Z,102850.28
2024-02-01T05:35:37.773Z,102855.59
2024-02-01T05:38:07.127Z,102860.81
2024-02-01T05:40:33.795Z,102863.56
2024-02-01T05:43:01.877Z,102871.31
2024-02-01T05:45:30.501Z,102880.91
2024-02-01T05:47:58.181Z,102886.19
2024-02-01T05:50:24.702Z,102894.94
2024-02-01T05:52:51.180Z,102895.09
2024-02-01T05:55:17.713Z,102910.75
2024-02-01T05:57:47.049Z,102903.88
2024-02-01T06:00:14.548Z,102906.66
2024-02-01T06:02:42.530Z,102907.69
2024-02-01T06:05:09.247Z,102923.53
2024-02-01T06:07:35.835Z,102927.13
2024-02-01T06:10:02.389Z,102932.41
2024-02-01T06:12:34.260Z,102936.72
2024-02-01T06:15:02.744Z,102938.38
2024-02-01T06:17:29.440Z,102944.41
2024-02-01T06:19:56.824Z,102953.22
2024-02-01T06:22:23.574Z,102954.97
2024-02-01T06:24:50.047Z,102955.00
2024-02-01T06:27:16.604Z,102962.81
2024-02-01T06:29:43.244Z,102955.00
2024-02-01T06:32:20.850Z,102958.56
2024-02-01T06:34:58.966Z,102950.91
2024-02-01T06:37:29.925Z,102942.38
2024-02-01T06:40:34.483Z,102959.75
2024-02-01T06:43:19.405Z,102965.06
2024-02-01T06:46:09.218Z,102965.06
2024-02-01T06:48:43.620Z,102976.38
2024-02-01T06:51:27.526Z,102973.72
2024-02-01T06:54:07.579Z,102980.69
2024-02-01T06:56:52.440Z,102994.53
2024-02-01T06:59:33.288Z,102998.97
2024-02-01T07:02:26.458Z,102998.19
2024-02-01T07:04:54.869Z,103001.66
2024-02-01T07:07:28.847Z,102997.34
2024-02-01T07:10:00.343Z,103012.00
2024-02-01T07:12:45.034Z,103015.47
2024-02-01T07:15:25.942Z,103032.78
2024-02-01T07:18:08.652Z,103031.13
2024-02-01T07:20:51.573Z,103034.66
2024-02-01T07:23:22.051Z,103044.22
2024-02-01T07:25:49.990Z,103046.88
2024-02-01T07:28:36.665Z,103047.72
2024-02-01T07:31:25.072Z,103052.06
2024-02-01T07:34:10.384Z,103067.59
2024-02-01T07:36:56.642Z,103058.19
2024-02-01T07:39:41.820Z,103067.69
2024-02-01T07:42:26.722Z,103073.81
2024-02-01T07:45:11.740Z,103075.53
2024-02-01T07:47:57.220Z,103078.19
2024-02-01T07:50:42.622Z,103079.03
2024-02-01T07:53:27.441Z,103086.78
2024-02-01T07:56:12.330Z,103094.56
2024-02-01T07:58:40.900Z,103104.06
2024-02-01T08:01:19.621Z,103099.72
2024-02-01T08:04:03.146Z,103103.22
2024-02-01T08:06:48.566Z,103106.63
2024-02-01T08:09:15.794Z,103110.94
2024-02-01T08:11:43.375Z,103118.69
2024-02-01T08:14:15.006Z,103119.53
2024-02-01T08:16:43.526Z,103138.50
2024-02-01T08:19:17.484Z,103128.16
2024-02-01T08:21:51.742Z,103126.38
2024-02-01T08:24:18.456Z,103125.50
2024-02-01T08:26:47.248Z,103138.44
2024-02-01T08:29:16.467Z,103139.31
2024-02-01T08:31:43.487Z,103147.00
2024-02-01T08:34:16.296Z,103153.91
2024-02-01T08:36:44.907Z,103154.72
2024-02-01T08:39:12.401Z,103159.88
2024-02-01T08:41:41.124Z,103159.81
2024-02-01T08:44:08.114Z,103167.53
2024-02-01T08:46:35.046Z,103157.13
2024-02-01T08:49:02.349Z,103173.50
2024-02-01T08:51:29.210Z,103168.28
2024-02-01T08:53:58.163Z,103171.69
2024-02-01T08:56:37.811Z,103174.22
2024-02-01T08:59:05.342Z,103165.50
2024-02-01T09:01:34.268Z,103170.63
2024-02-01T09:04:01.606Z,103176.63
2024-02-01T09:06:28.820Z,103178.31
2024-02-01T09:08:55.611Z,103179.13
2024-02-01T09:11:23.493Z,103182.53
2024-02-01T09:13:50.071Z,103172.03
2024-02-01T09:16:31.815Z,103178.81
2024-02-01T09:19:01.465Z,103177.81
2024-02-01T09:21:28.674Z,103187.19
2024-02-01T09:23:55.500Z,103181.88
2024-02-01T09:26:22.034Z,103195.56
2024-02-01T09:28:48.534Z,103201.50
2024-02-01T09:31:21.343Z,103189.22
2024-02-01T09:33:49.275Z,103196.03
2024-02-01T09:36:15.995Z,103203.66
2024-02-01T09:38:43.046Z,103200.91
2024-02-01T09:41:21.593Z,103208.59
2024-02-01T09:43:50.220Z,103204.13
2024-02-01T09:46:21.892Z,103215.22
2024-02-01T09:48:49.157Z,103224.59
2024-02-01T09:51:19.773Z,103235.66
2024-02-01T09:53:48.173Z,103233.81
2024-02-01T09:56:14.850Z,103235.31
2024-02-01T09:58:42.737Z,103250.69
2024-02-01T10:01:11.723Z,103250.50
2024-02-01T10:03:46.052Z,103257.34
2024-02-01T10:06:13.874Z,103265.91
2024-02-01T10:08:41.092Z,103259.66
2024-02-01T10:11:08.411Z,103275.09
2024-02-01T10:13:38.877Z,103268.00
2024-02-01T10:16:14.687Z,103260.06
2024-02-01T10:18:54.715Z,103252.13
2024-02-01T10:21:29.855Z,103251.03
2024-02-01T10:24:06.925Z,103258.66
2024-02-01T10:26:34.227Z,103275.00
2024-02-01T10:29:00.796Z,103256.53
2024-02-01T10:31:31.244Z,103256.31
2024-02-01T10:34:06.984Z,103273.66
2024-02-01T10:36:39.017Z,103278.59
2024-02-01T10:39:07.403Z,103272.34
2024-02-01T10:41:39.591Z,103273.09
2024-02-01T10:44:08.455Z,103274.75
2024-02-01T10:49:31.769Z,103266.59
2024-02-01T10:51:59.067Z,103268.19
2024-02-01T10:54:30.071Z,103269.88
2024-02-01T10:57:06.237Z,103256.78
2024-02-01T10:59:33.616Z,103266.13
2024-02-01T11:02:00.952Z,103271.09
2024-02-01T11:04:34.834Z,103262.28
2024-02-01T11:07:01.695Z,103250.06
2024-02-01T11:09:31.044Z,103252.47
2024-02-01T11:11:59.021Z,103252.25
2024-02-01T11:14:27.909Z,103251.25
2024-02-01T11:17:03.152Z,103253.66
2024-02-01T11:19:39.117Z,103258.66
2024-02-01T11:22:12.838Z,103262.81
2024-02-01T11:24:42.688Z,103256.50
2024-02-01T11:27:21.174Z,103253.56
2024-02-01T11:29:53.891Z,103269.84
2024-02-01T11:32:25.168Z,103271.47
2024-02-01T11:34:54.445Z,103274.00
2024-02-01T11:37:23.958Z,103278.50
2024-02-01T11:39:53.269Z,103281.16
2024-02-01T11:42:30.958Z,103281.91
2024-02-01T11:45:05.385Z,103278.25
2024-02-01T11:47:45.216Z,103276.47
2024-02-01T11:50:15.197Z,103277.31
2024-02-01T11:53:07.873Z,103264.53
2024-02-01T11:55:35.864Z,103276.69
2024-02-01T11:58:04.174Z,103274.13
2024-02-01T12:00:44.866Z,103271.72
2024-02-01T12:03:17.325Z,103276.00
2024-02-01T12:05:47.433Z,103275.09
2024-02-01T12:08:14.836Z,103275.16
2024-02-01T12:10:47.431Z,103274.88
2024-02-01T12:13:16.846Z,103290.13
2024-02-01T12:15:49.211Z,103287.56
2024-02-01T12:18:15.916Z,103286.78
2024-02-01T12:20:43.507Z,103285.88
2024-02-01T12:23:12.827Z,103289.28
2024-02-01T12:25:40.326Z,103288.13
2024-02-01T12:28:11.104Z,103291.38
2024-02-01T12:30:38.511Z,103286.25
2024-02-01T12:33:12.751Z,103290.78
2024-02-01T12:35:42.906Z,103269.22
2024-02-01T12:38:10.842Z,103271.50
2024-02-01T12:40:37.440Z,103274.66
2024-02-01T12:43:06.144Z,103273.88
2024-02-01T12:45:32.937Z,103282.44
2024-02-01T12:47:59.801Z,103279.63
2024-02-01T12:50:26.489Z,103279.47
2024-02-01T12:52:53.866Z,103283.41
2024-02-01T12:55:21.654Z,103286.16
2024-02-01T12:57:48.377Z,103291.78
2024-02-01T13:00:15.791Z,103291.00
2024-02-01T13:02:43.013Z,103285.84
2024-02-01T13:05:11.770Z,103284.91
2024-02-01T13:07:39.157Z,103282.91
2024-02-01T13:10:08.327Z,103279.25
2024-02-01T13:12:36.330Z,103273.53
2024-02-01T13:15:06.605Z,103268.75
2024-02-01T13:17:35.547Z,103263.44
2024-02-01T13:20:04.667Z,103265.41
2024-02-01T13:22:32.342Z,103276.00
2024-02-01T13:24:58.994Z,103274.13
2024-02-01T13:27:26.677Z,103275.03
2024-02-01T13:29:53.249Z,103269.75
2024-02-01T13:32:20.057Z,103270.66
2024-02-01T13:34:46.862Z,103276.97
2024-02-01T13:37:13.439Z,103272.59
2024-02-01T13:39:44.041Z,103260.56
2024-02-01T13:42:11.869Z,103266.94
2024-02-01T13:44:39.278Z,103260.78
2024-02-01T13:47:07.246Z,103257.19
2024-02-01T13:49:34.612Z,103264.41
2024-02-01T13:52:01.529Z,103266.16
2024-02-01T13:54:28.360Z,103275.72
2024-02-01T13:56:54.975Z,103274.78
2024-02-01T13:59:21.470Z,103265.22
2024-02-01T14:01:48.022Z,103267.78
2024-02-01T14:04:14.804Z,103264.97
2024-02-01T14:06:41.383Z,103269.16
2024-02-01T14:09:11.086Z,103265.59
2024-02-01T14:11:40.974Z,103259.50
2024-02-01T14:14:08.266Z,103254.44
2024-02-01T14:16:35.503Z,103260.41
2024-02-01T14:19:02.340Z,103262.16
2024-02-01T14:21:29.704Z,103255.94
2024-02-01T14:23:58.446Z,103261.81
2024-02-01T14:26:25.157Z,103264.28
2024-02-01T14:28:55.164Z,103274.75
2024-02-01T14:31:23.451Z,103277.34
2024-02-01T14:33:50.826Z,103266.75
2024-02-01T14:36:18.598Z,103273.81
2024-02-01T14:38:47.267Z,103270.34
2024-02-01T14:41:14.204Z,103275.59
2024-02-01T14:43:40.882Z,103274.03
2024-02-01T14:46:07.650Z,103279.47
2024-02-01T14:48:34.416Z,103282.25
2024-02-01T14:51:01.132Z,103287.75
2024-02-01T14:53:27.740Z,103288.84
2024-02-01T14:55:54.286Z,103288.13
2024-02-01T14:58:20.883Z,103290.03
2024-02-01T15:00:50.873Z,103297.09
2024-02-01T15:03:21.348Z,103303.34
2024-02-01T15:05:48.185Z,103305.25
2024-02-01T15:08:14.836Z,103315.00
2024-02-01T15:10:41.497Z,103325.63
2024-02-01T15:13:10.783Z,103329.16
2024-02-01T15:15:38.385Z,103328.31
2024-02-01T15:18:05.885Z,103331.22
2024-02-01T15:20:35.599Z,103333.47
2024-02-01T15:23:03.692Z,103330.06
2024-02-01T15:25:41.244Z,103334.53
2024-02-01T15:28:09.071Z,103341.75
2024-02-01T15:30:35.602Z,103342.59
2024-02-01T15:33:02.205Z,103347.19
2024-02-01T15:35:31.009Z,103344.81
2024-02-01T15:37:57.687Z,103339.75
2024-02-01T15:40:28.074Z,103341.84
2024-02-01T15:42:54.752Z,103341.09
2024-02-01T15:45:22.528Z,103325.56
2024-02-01T15:47:49.851Z,103334.44
2024-02-01T15:50:20.405Z,103341.66
2024-02-01T15:52:50.875Z,103347.03
2024-02-01T15:55:17.677Z,103356.66
2024-02-01T15:57:46.996Z,103351.56
2024-02-01T16:00:14.177Z,103351.69
2024-02-01T16:02:40.865Z,103351.91
2024-02-01T16:05:07.801Z,103351.06
2024-02-01T16:07:35.409Z,103354.72
2024-02-01T16:10:02.951Z,103354.72
2024-02-01T16:12:29.605Z,103357.44
2024-02-01T16:14:56.546Z,103363.59
2024-02-01T16:17:23.048Z,103368.94
2024-02-01T16:19:49.912Z,103369.09
2024-02-01T16:22:36.001Z,103364.03
2024-02-01T16:25:02.656Z,103366.69
2024-02-01T16:27:37.903Z,103366.75
2024-02-01T16:30:35.836Z,103375.53
2024-02-01T16:33:02.503Z,103369.56
2024-02-01T16:35:53.685Z,103369.75
2024-02-01T16:38:24.858Z,103369.91
2024-02-01T16:40:52.341Z,103371.00
2024-02-01T16:43:37.083Z,103368.53
2024-02-01T16:46:25.304Z,103360.84
2024-02-01T16:48:52.128Z,103355.69
2024-02-01T16:51:26.118Z,103372.22
2024-02-01T16:53:53.530Z,103379.19
2024-02-01T16:56:20.905Z,103377.50
2024-02-01T16:58:50.904Z,103378.44
2024-02-01T17:01:40.145Z,103375.84
2024-02-01T17:04:14.252Z,103381.13
2024-02-01T17:06:41.129Z,103374.22
2024-02-01T17:09:10.068Z,103379.47
2024-02-01T17:11:37.493Z,103374.25
2024-02-01T17:14:19.393Z,103382.13
2024-02-01T17:17:04.780Z,103379.59
2024-02-01T17:19:35.719Z,103377.03
2024-02-01T17:22:14.286Z,103385.75
2024-02-01T17:24:41.390Z,103387.56
2024-02-01T17:27:09.250Z,103399.72
2024-02-01T17:29:36.470Z,103393.69
2024-02-01T17:32:03.026Z,103379.78
2024-02-01T17:34:42.936Z,103381.50
2024-02-01T17:37:37.009Z,103377.16
2024-02-01T17:40:10.052Z,103386.72
2024-02-01T17:42:39.457Z,103387.56
2024-02-01T17:45:09.258Z,103384.97
2024-02-01T17:47:35.989Z,103390.16
2024-02-01T17:50:07.323Z,103384.09
2024-02-01T17:52:42.572Z,103380.63
2024-02-01T17:55:22.231Z,103375.41
2024-02-01T17:57:57.145Z,103383.22
2024-02-01T18:00:28.327Z,103391.97
2024-02-01T18:02:58.100Z,103400.59
2024-02-01T18:05:28.674Z,103397.19
2024-02-01T18:07:55.512Z,103399.78
2024-02-01T18:10:29.405Z,103411.94
2024-02-01T18:12:57.327Z,103416.31
2024-02-01T18:16:02.193Z,103411.97
2024-02-01T18:18:33.352Z,103418.06
2024-02-01T18:21:03.052Z,103422.41
2024-02-01T18:23:32.610Z,103412.84
2024-02-01T18:26:07.811Z,103405.97
2024-02-01T18:28:39.743Z,103401.59
2024-02-01T18:31:14.132Z,103401.59
2024-02-01T18:33:41.994Z,103400.78
2024-02-01T18:36:21.101Z,103401.72
2024-02-01T18:39:02.752Z,103406.06
2024-02-01T18:41:31.818Z,103409.56
2024-02-01T18:44:19.687Z,103397.44
2024-02-01T18:46:50.382Z,103402.78
2024-02-01T18:49:21.370Z,103397.78
2024-02-01T18:51:53.806Z,103391.84
2024-02-01T18:54:22.319Z,103403.25
2024-02-01T18:56:50.230Z,103406.84
2024-02-01T18:59:28.087Z,103406.91
2024-02-01T19:01:55.185Z,103408.81
2024-02-01T19:04:23.217Z,103412.31
2024-02-01T19:06:51.781Z,103412.50
2024-02-01T19:09:21.934Z,103411.66
2024-02-01T19:11:57.444Z,103406.59
2024-02-01T19:14:44.091Z,103417.09
2024-02-01T19:17:28.047Z,103403.34
2024-02-01T19:19:55.715Z,103400.00
2024-02-01T19:22:37.506Z,103403.53
2024-02-01T19:25:04.895Z,103394.16
2024-02-01T19:27:40.503Z,103407.13
2024-02-01T19:30:11.928Z,103411.56
2024-02-01T19:32:46.796Z,103416.88
2024-02-01T19:35:25.296Z,103413.47
2024-02-01T19:37:53.757Z,103417.03
2024-02-01T19:40:21.122Z,103413.59
2024-02-01T19:42:47.702Z,103410.22
2024-02-01T19:45:14.399Z,103400.72
2024-02-01T19:47:43.978Z,103396.44
2024-02-01T19:50:11.863Z,103396.53
2024-02-01T19:52:38.690Z,103401.78
2024-02-01T19:55:06.100Z,103403.59
2024-02-01T19:57:40.186Z,103413.16
2024-02-01T20:00:10.666Z,103413.13
2024-02-01T20:02:38.876Z,103404.50
2024-02-01T20:05:05.936Z,103413.19
2024-02-01T20:07:32.497Z,103416.59
2024-02-01T20:09:59.330Z,103421.75
2024-02-01T20:12:25.945Z,103420.88
2024-02-01T20:14:55.415Z,103420.84
2024-02-01T20:17:22.524Z,103415.63
2024-02-01T20:19:49.812Z,103407.88
2024-02-01T20:22:17.279Z,103405.28
2024-02-01T20:24:44.708Z,103406.19
2024-02-01T20:27:14.154Z,103414.00
2024-02-01T20:29:46.984Z,103400.16
2024-02-01T20:32:18.792Z,103406.28
2024-02-01T20:34:46.219Z,103412.31
2024-02-01T20:37:17.311Z,103405.41
2024-02-01T20:39:46.466Z,103395.88
2024-02-01T20:42:16.140Z,103403.69
2024-02-01T20:44:45.229Z,103404.53
2024-02-01T20:47:15.525Z,103391.53
2024-02-01T20:49:45.628Z,103390.66
2024-02-01T20:52:24.536Z,103382.03
2024-02-01T20:55:19.874Z,103380.31
2024-02-01T20:57:58.106Z,103383.75
2024-02-01T21:00:26.803Z,103384.59
2024-02-01T21:02:53.594Z,103382.88
2024-02-01T21:05:20.763Z,103378.50
2024-02-01T21:07:48.309Z,103371.59
2024-02-01T21:10:20.823Z,103356.03
2024-02-01T21:13:00.863Z,103349.97
2024-02-01T21:15:30.045Z,103336.13
2024-02-01T21:17:58.926Z,103346.47
2024-02-01T21:20:40.156Z,103342.13
2024-02-01T21:23:22.464Z,103347.31
2024-02-01T21:26:22.554Z,103355.09
2024-02-01T21:28:54.202Z,103348.16
2024-02-01T21:31:26.768Z,103334.31
2024-02-01T21:33:59.309Z,103336.88
2024-02-01T21:36:28.913Z,103345.53
2024-02-01T21:38:55.838Z,103347.25
2024-02-01T21:41:26.185Z,103335.97
2024-02-01T21:43:53.109Z,103327.34
2024-02-01T21:46:19.666Z,103342.06
2024-02-01T21:48:46.274Z,103338.56
2024-02-01T21:51:12.933Z,103340.31
2024-02-01T21:53:39.610Z,103341.16
2024-02-01T21:56:06.602Z,103329.91
2024-02-01T21:58:33.187Z,103330.75
2024-02-01T22:01:01.615Z,103323.00
2024-02-01T22:03:28.646Z,103321.25
2024-02-01T22:05:55.444Z,103316.91
2024-02-01T22:08:22.027Z,103323.84
2024-02-01T22:10:48.724Z,103327.34
2024-02-01T22:13:15.526Z,103329.94
2024-02-01T22:15:42.324Z,103325.59
2024-02-01T22:18:09.061Z,103326.44
2024-02-01T22:20:36.774Z,103324.72
2024-02-01T22:23:04.373Z,103319.53
2024-02-01T22:25:30.990Z,103315.19
2024-02-01T22:27:57.506Z,103329.91
2024-02-01T22:30:24.061Z,103322.09
2024-02-01T22:32:50.659Z,103316.09
2024-02-01T22:35:17.376Z,103324.72
2024-02-01T22:37:43.994Z,103310.84
2024-02-01T22:40:11.089Z,103319.50
2024-02-01T22:42:37.696Z,103323.78
2024-02-01T22:45:04.776Z,103310.84
2024-02-01T22:47:34.270Z,103317.75
2024-02-01T22:50:00.973Z,103315.13
2024-02-01T22:52:27.571Z,103315.09
2024-02-01T22:54:54.216Z,103303.00
2024-02-01T22:57:20.740Z,103302.97
2024-02-01T22:59:47.330Z,103305.56
2024-02-01T23:02:13.814Z,103295.13
2024-02-01T23:04:40.488Z,103283.00
2024-02-01T23:07:07.205Z,103266.56
2024-02-01T23:09:34.092Z,103276.06
2024-02-01T23:12:00.639Z,103278.66
2024-02-01T23:14:27.327Z,103278.66
2024-02-01T23:16:53.880Z,103286.44
2024-02-01T23:19:20.716Z,103273.41
2024-02-01T23:21:50.135Z,103268.22
2024-02-01T23:24:18.582Z,103275.13
2024-02-01T23:26:45.082Z,103270.75
2024-02-01T23:29:11.644Z,103265.53
2024-02-01T23:31:38.135Z,103258.59
2024-02-01T23:34:05.731Z,103258.59
2024-02-01T23:39:53.809Z,103226.53
2024-02-01T23:42:20.326Z,103217.84
2024-02-01T23:44:46.933Z,103225.63
2024-02-01T23:47:13.396Z,103216.09
2024-02-01T23:49:40.127Z,103216.09
2024-02-01T23:52:07.065Z,103221.25
2024-02-01T23:54:33.667Z,103226.44
2024-02-01T23:57:00.214Z,103223.78
2024-02-01T23:59:26.782Z,103222.09
